createdAt,value
2023-05-16T00:01:01.282Z,14.00
2023-05-16T00:03:27.930Z,13.75
2023-05-16T00:05:54.463Z,13.64
2023-05-16T00:08:20.774Z,13.69
2023-05-16T00:10:47.195Z,13.41
2023-05-16T00:13:13.607Z,13.56
2023-05-16T00:15:39.921Z,13.54
2023-05-16T00:18:06.544Z,13.44
2023-05-16T00:20:32.879Z,13.39
2023-05-16T00:23:01.952Z,13.30
2023-05-16T00:25:28.738Z,13.46
2023-05-16T00:27:55.063Z,13.27
2023-05-16T00:30:22.664Z,13.29
2023-05-16T00:32:49.011Z,13.26
2023-05-16T00:35:15.436Z,13.35
2023-05-16T00:37:41.735Z,13.30
2023-05-16T00:40:08.317Z,13.13
2023-05-16T00:42:34.626Z,13.06
2023-05-16T00:45:00.910Z,13.37
2023-05-16T00:47:27.207Z,13.51
2023-05-16T00:49:53.830Z,13.71
2023-05-16T00:52:20.466Z,13.57
2023-05-16T00:54:46.850Z,13.38
2023-05-16T00:57:13.140Z,13.36
2023-05-16T00:59:40.191Z,13.21
2023-05-16T01:02:06.478Z,13.14
2023-05-16T01:04:32.774Z,13.11
2023-05-16T01:06:59.058Z,13.04
2023-05-16T01:09:25.403Z,12.93
2023-05-16T01:11:54.694Z,12.89
2023-05-16T01:14:39.803Z,12.78
2023-05-16T01:17:28.182Z,12.89
2023-05-16T01:19:57.462Z,12.91
2023-05-16T01:22:26.753Z,13.04
2023-05-16T01:24:52.967Z,13.09
2023-05-16T01:27:19.279Z,13.17
2023-05-16T01:29:46.046Z,13.00
2023-05-16T01:32:14.341Z,13.09
2023-05-16T01:34:41.127Z,12.96
2023-05-16T01:37:09.724Z,13.19
2023-05-16T01:39:44.307Z,13.11
2023-05-16T01:42:12.849Z,13.05
2023-05-16T01:44:54.298Z,13.02
2023-05-16T01:47:20.716Z,13.04
2023-05-16T01:49:51.182Z,13.25
2023-05-16T01:52:24.703Z,13.12
2023-05-16T01:54:50.992Z,13.17
2023-05-16T01:57:17.354Z,13.38
2023-05-16T01:59:43.642Z,13.39
2023-05-16T02:02:09.954Z,13.38
2023-05-16T02:04:36.242Z,13.57
2023-05-16T02:07:02.648Z,13.54
2023-05-16T02:09:28.967Z,13.77
2023-05-16T02:11:55.309Z,13.85
2023-05-16T02:14:21.699Z,13.77
2023-05-16T02:16:48.232Z,13.77
2023-05-16T02:19:14.773Z,13.77
2023-05-16T02:21:41.184Z,13.74
2023-05-16T02:24:07.451Z,13.52
2023-05-16T02:26:33.729Z,13.62
2023-05-16T02:29:00.022Z,13.70
2023-05-16T02:31:27.139Z,13.57
2023-05-16T02:33:53.627Z,13.56
2023-05-16T02:36:20.117Z,13.74
2023-05-16T02:38:46.574Z,13.79
2023-05-16T02:41:12.932Z,13.94
2023-05-16T02:43:39.347Z,14.00
2023-05-16T02:46:05.985Z,13.84
2023-05-16T02:48:32.290Z,13.92
2023-05-16T02:50:58.573Z,14.00
2023-05-16T02:53:24.913Z,14.09
2023-05-16T02:55:51.192Z,14.15
2023-05-16T02:58:17.478Z,14.12
2023-05-16T03:00:44.021Z,14.09
2023-05-16T03:03:10.452Z,13.98
2023-05-16T03:05:37.417Z,14.02
2023-05-16T03:08:03.688Z,13.87
2023-05-16T03:10:29.967Z,13.71
2023-05-16T03:12:56.292Z,13.75
2023-05-16T03:15:22.617Z,13.85
2023-05-16T03:17:48.972Z,13.81
2023-05-16T03:20:15.431Z,13.71
2023-05-16T03:22:41.776Z,13.65
2023-05-16T03:25:08.191Z,13.63
2023-05-16T03:27:34.574Z,13.48
2023-05-16T03:30:00.870Z,13.53
2023-05-16T03:32:27.198Z,13.30
2023-05-16T03:34:53.503Z,13.26
2023-05-16T03:37:19.794Z,13.43
2023-05-16T03:39:46.073Z,13.57
2023-05-16T03:42:12.480Z,13.74
2023-05-16T03:44:38.813Z,13.85
2023-05-16T03:47:05.092Z,13.86
2023-05-16T03:49:31.378Z,13.87
2023-05-16T03:51:57.710Z,14.02
2023-05-16T03:54:24.102Z,14.09
2023-05-16T03:56:50.430Z,14.00
2023-05-16T03:59:16.797Z,13.85
2023-05-16T04:01:43.507Z,13.95
2023-05-16T04:04:09.847Z,13.83
2023-05-16T04:06:36.196Z,13.81
2023-05-16T04:09:02.474Z,13.64
2023-05-16T04:11:28.819Z,13.78
2023-05-16T04:13:55.632Z,13.96
2023-05-16T04:16:21.999Z,13.99
2023-05-16T04:18:48.374Z,13.78
2023-05-16T04:21:15.289Z,13.79
2023-05-16T04:23:41.778Z,13.83
2023-05-16T04:26:08.595Z,13.52
2023-05-16T04:28:34.948Z,13.26
2023-05-16T04:31:01.859Z,13.18
2023-05-16T04:33:28.265Z,13.42
2023-05-16T04:35:58.571Z,13.47
2023-05-16T04:38:24.850Z,13.23
2023-05-16T04:40:51.767Z,13.21
2023-05-16T04:43:18.386Z,13.60
2023-05-16T04:45:44.793Z,13.77
2023-05-16T04:48:12.179Z,13.96
2023-05-16T04:50:38.483Z,13.98
2023-05-16T04:53:04.826Z,13.62
2023-05-16T04:55:31.467Z,13.43
2023-05-16T04:57:57.920Z,13.59
2023-05-16T05:00:24.379Z,13.88
2023-05-16T05:02:50.835Z,13.97
2023-05-16T05:05:17.266Z,14.13
2023-05-16T05:07:43.555Z,14.18
2023-05-16T05:10:11.554Z,14.25
2023-05-16T05:12:37.841Z,14.01
2023-05-16T05:15:04.679Z,13.45
2023-05-16T05:17:31.034Z,13.24
2023-05-16T05:19:57.392Z,13.60
2023-05-16T05:22:23.827Z,13.84
2023-05-16T05:24:50.126Z,14.02
2023-05-16T05:27:16.413Z,14.18
2023-05-16T05:29:42.751Z,14.23
2023-05-16T05:32:09.145Z,14.24
2023-05-16T05:34:35.589Z,13.97
2023-05-16T05:37:01.869Z,13.20
2023-05-16T05:39:28.238Z,13.20
2023-05-16T05:41:54.627Z,13.26
2023-05-16T05:44:20.962Z,13.53
2023-05-16T05:46:47.362Z,13.77
2023-05-16T05:49:13.681Z,13.89
2023-05-16T05:51:39.961Z,13.76
2023-05-16T05:54:06.351Z,13.39
2023-05-16T05:56:32.638Z,13.62
2023-05-16T05:58:58.939Z,13.27
2023-05-16T06:01:25.274Z,13.18
2023-05-16T06:03:51.885Z,13.18
2023-05-16T06:06:18.195Z,13.21
2023-05-16T06:08:44.517Z,13.15
2023-05-16T06:11:10.816Z,13.09
2023-05-16T06:13:37.131Z,13.50
2023-05-16T06:16:03.517Z,13.99
2023-05-16T06:18:29.932Z,13.65
2023-05-16T06:20:56.264Z,13.49
2023-05-16T06:23:22.556Z,14.05
2023-05-16T06:25:48.852Z,14.26
2023-05-16T06:28:15.231Z,13.89
2023-05-16T06:30:41.558Z,14.22
2023-05-16T06:33:07.990Z,13.55
2023-05-16T06:35:34.319Z,14.00
2023-05-16T06:38:00.621Z,14.16
2023-05-16T06:40:26.905Z,14.10
2023-05-16T06:42:53.331Z,13.94
2023-05-16T06:45:19.772Z,13.46
2023-05-16T06:47:46.156Z,13.27
2023-05-16T06:50:12.578Z,13.19
2023-05-16T06:52:38.904Z,12.68
2023-05-16T06:55:05.775Z,12.67
2023-05-16T06:57:32.120Z,13.41
2023-05-16T06:59:58.460Z,13.97
2023-05-16T07:02:24.853Z,13.47
2023-05-16T07:04:51.486Z,13.30
2023-05-16T07:07:17.834Z,13.09
2023-05-16T07:09:44.171Z,13.51
2023-05-16T07:12:10.559Z,13.79
2023-05-16T07:14:36.921Z,14.20
2023-05-16T07:17:03.799Z,13.94
2023-05-16T07:19:30.437Z,13.42
2023-05-16T07:21:56.832Z,13.31
2023-05-16T07:24:23.210Z,14.01
2023-05-16T07:26:49.975Z,13.75
2023-05-16T07:29:16.439Z,13.81
2023-05-16T07:31:42.805Z,13.34
2023-05-16T07:34:09.655Z,13.56
2023-05-16T07:36:36.016Z,13.80
2023-05-16T07:39:02.405Z,13.63
2023-05-16T07:41:29.341Z,13.80
2023-05-16T07:43:55.692Z,14.05
2023-05-16T07:46:22.074Z,14.12
2023-05-16T07:48:48.471Z,13.34
2023-05-16T07:51:14.790Z,13.01
2023-05-16T07:53:41.975Z,13.28
2023-05-16T07:56:08.719Z,12.84
2023-05-16T07:58:35.155Z,13.23
2023-05-16T08:01:01.684Z,12.71
2023-05-16T08:03:28.250Z,13.03
2023-05-16T08:05:54.806Z,13.47
2023-05-16T08:08:21.568Z,13.12
2023-05-16T08:10:48.062Z,13.09
2023-05-16T08:13:14.428Z,13.26
2023-05-16T08:15:40.874Z,13.44
2023-05-16T08:18:08.465Z,13.27
2023-05-16T08:20:34.839Z,12.99
2023-05-16T08:23:01.212Z,13.35
2023-05-16T08:25:27.936Z,13.75
2023-05-16T08:27:54.495Z,14.09
2023-05-16T08:30:21.047Z,14.63
2023-05-16T08:32:47.651Z,14.44
2023-05-16T08:35:14.327Z,14.11
2023-05-16T08:37:40.765Z,13.71
2023-05-16T08:40:08.222Z,13.82
2023-05-16T08:42:34.826Z,14.46
2023-05-16T08:45:01.322Z,15.05
2023-05-16T08:47:27.712Z,15.35
2023-05-16T08:49:54.196Z,15.56
2023-05-16T08:52:21.235Z,15.81
2023-05-16T08:54:55.264Z,15.67
2023-05-16T08:57:33.011Z,15.52
2023-05-16T08:59:59.854Z,15.70
2023-05-16T09:02:26.825Z,15.31
2023-05-16T09:04:53.270Z,14.66
2023-05-16T09:07:19.633Z,14.84
2023-05-16T09:09:46.008Z,14.53
2023-05-16T09:12:12.343Z,14.82
2023-05-16T09:14:38.745Z,14.43
2023-05-16T09:17:05.868Z,13.74
2023-05-16T09:19:39.563Z,13.90
2023-05-16T09:22:06.840Z,14.05
2023-05-16T09:24:33.167Z,14.51
2023-05-16T09:27:07.125Z,14.73
2023-05-16T09:29:36.065Z,14.68
2023-05-16T09:32:12.560Z,14.86
2023-05-16T09:34:40.055Z,14.34
2023-05-16T09:37:06.394Z,14.27
2023-05-16T09:39:32.737Z,13.99
2023-05-16T09:41:59.194Z,14.41
2023-05-16T09:44:25.635Z,14.37
2023-05-16T09:46:53.678Z,14.01
2023-05-16T09:49:20.036Z,14.39
2023-05-16T09:51:46.465Z,14.17
2023-05-16T09:54:13.058Z,14.45
2023-05-16T09:56:49.128Z,14.16
2023-05-16T09:59:15.521Z,14.52
2023-05-16T10:01:41.904Z,14.73
2023-05-16T10:04:10.579Z,14.46
2023-05-16T10:06:37.504Z,15.06
2023-05-16T10:09:03.908Z,14.98
2023-05-16T10:11:30.354Z,15.00
2023-05-16T10:13:56.918Z,15.21
2023-05-16T10:16:23.828Z,14.63
2023-05-16T10:18:50.246Z,14.45
2023-05-16T10:21:16.917Z,14.53
2023-05-16T10:23:43.757Z,14.91
2023-05-16T10:26:10.263Z,15.18
2023-05-16T10:28:36.749Z,15.10
2023-05-16T10:31:03.132Z,14.54
2023-05-16T10:33:29.758Z,14.95
2023-05-16T10:35:56.086Z,15.13
2023-05-16T10:38:23.906Z,15.44
2023-05-16T10:40:50.317Z,14.83
2023-05-16T10:43:26.876Z,14.85
2023-05-16T10:45:56.736Z,15.47
2023-05-16T10:48:36.113Z,15.63
2023-05-16T10:51:03.226Z,15.77
2023-05-16T10:53:33.331Z,15.73
2023-05-16T10:55:59.711Z,15.56
2023-05-16T10:58:38.065Z,15.19
2023-05-16T11:01:17.209Z,14.86
2023-05-16T11:03:59.313Z,15.07
2023-05-16T11:06:32.686Z,15.22
2023-05-16T11:09:07.945Z,15.55
2023-05-16T11:11:44.332Z,15.45
2023-05-16T11:14:23.124Z,15.07
2023-05-16T11:16:54.691Z,15.35
2023-05-16T11:19:39.631Z,15.44
2023-05-16T11:22:07.178Z,15.60
2023-05-16T11:24:34.888Z,15.62
2023-05-16T11:27:01.388Z,15.34
2023-05-16T11:29:34.417Z,15.43
2023-05-16T11:32:01.155Z,15.51
2023-05-16T11:34:27.577Z,15.35
2023-05-16T11:36:53.940Z,15.66
2023-05-16T11:39:20.491Z,15.90
2023-05-16T11:41:48.747Z,15.74
2023-05-16T11:44:15.424Z,15.43
2023-05-16T11:46:41.873Z,15.19
2023-05-16T11:49:11.482Z,15.05
2023-05-16T11:51:41.069Z,15.08
2023-05-16T11:54:07.785Z,14.86
2023-05-16T11:56:35.394Z,15.30
2023-05-16T11:59:01.754Z,15.42
2023-05-16T12:01:37.787Z,15.28
2023-05-16T12:04:11.627Z,15.24
2023-05-16T12:06:43.161Z,15.02
2023-05-16T12:09:12.371Z,15.02
2023-05-16T12:11:38.744Z,14.95
2023-05-16T12:14:05.678Z,14.98
2023-05-16T12:16:32.786Z,14.80
2023-05-16T12:18:59.394Z,14.45
2023-05-16T12:21:26.368Z,14.70
2023-05-16T12:23:55.298Z,15.24
2023-05-16T12:26:30.573Z,15.58
2023-05-16T12:29:00.479Z,15.40
2023-05-16T12:31:30.998Z,15.48
2023-05-16T12:33:58.737Z,15.38
2023-05-16T12:36:26.198Z,15.59
2023-05-16T12:38:52.896Z,15.55
2023-05-16T12:41:19.893Z,15.48
2023-05-16T12:43:46.245Z,15.60
2023-05-16T12:46:12.673Z,15.95
2023-05-16T12:48:45.597Z,15.64
2023-05-16T12:51:13.709Z,15.85
2023-05-16T12:53:57.538Z,16.11
2023-05-16T12:56:28.230Z,16.15
2023-05-16T12:58:54.600Z,16.18
2023-05-16T13:01:20.991Z,16.64
2023-05-16T13:03:47.395Z,16.70
2023-05-16T13:06:13.874Z,16.49
2023-05-16T13:08:40.267Z,16.58
2023-05-16T13:11:06.709Z,16.54
2023-05-16T13:13:36.505Z,16.26
2023-05-16T13:16:04.264Z,15.93
2023-05-16T13:18:31.318Z,16.08
2023-05-16T13:20:57.840Z,15.78
2023-05-16T13:23:24.181Z,15.76
2023-05-16T13:25:52.561Z,15.66
2023-05-16T13:28:18.953Z,15.83
2023-05-16T13:30:45.362Z,15.76
2023-05-16T13:33:11.758Z,16.02
2023-05-16T13:35:38.272Z,16.19
2023-05-16T13:38:04.585Z,15.76
2023-05-16T13:40:30.948Z,16.06
2023-05-16T13:42:57.412Z,15.78
2023-05-16T13:45:23.749Z,15.54
2023-05-16T13:47:50.320Z,15.83
2023-05-16T13:50:16.695Z,15.74
2023-05-16T13:52:43.907Z,15.73
2023-05-16T13:55:10.262Z,15.77
2023-05-16T13:57:36.626Z,16.01
2023-05-16T14:00:27.961Z,15.85
2023-05-16T14:02:55.064Z,16.04
2023-05-16T14:05:21.436Z,15.73
2023-05-16T14:07:47.862Z,15.71
2023-05-16T14:10:14.229Z,16.12
2023-05-16T14:12:40.774Z,16.23
2023-05-16T14:15:07.672Z,16.35
2023-05-16T14:17:34.133Z,15.80
2023-05-16T14:20:00.556Z,16.21
2023-05-16T14:22:28.633Z,15.92
2023-05-16T14:24:54.961Z,15.85
2023-05-16T14:27:21.332Z,16.20
2023-05-16T14:29:48.792Z,16.59
2023-05-16T14:32:15.249Z,16.73
2023-05-16T14:34:41.772Z,16.29
2023-05-16T14:37:10.221Z,15.98
2023-05-16T14:39:36.582Z,15.72
2023-05-16T14:42:02.935Z,15.52
2023-05-16T14:44:29.346Z,15.82
2023-05-16T14:46:55.746Z,15.84
2023-05-16T14:49:22.057Z,15.76
2023-05-16T14:51:50.406Z,15.74
2023-05-16T14:54:16.961Z,15.88
2023-05-16T14:56:44.727Z,16.17
2023-05-16T14:59:11.071Z,16.09
2023-05-16T15:01:37.747Z,15.56
2023-05-16T15:04:04.363Z,15.46
2023-05-16T15:06:31.070Z,15.44
2023-05-16T15:08:57.392Z,15.67
2023-05-16T15:11:23.803Z,15.76
2023-05-16T15:13:50.260Z,16.01
2023-05-16T15:16:16.767Z,16.58
2023-05-16T15:18:43.631Z,16.51
2023-05-16T15:21:10.128Z,15.92
2023-05-16T15:23:36.611Z,15.67
2023-05-16T15:26:03.122Z,16.00
2023-05-16T15:28:31.220Z,15.85
2023-05-16T15:30:57.542Z,16.03
2023-05-16T15:33:23.898Z,16.32
2023-05-16T15:35:50.352Z,16.18
2023-05-16T15:38:16.680Z,15.75
2023-05-16T15:40:43.012Z,15.70
2023-05-16T15:43:09.339Z,15.97
2023-05-16T15:45:39.292Z,15.74
2023-05-16T15:48:07.415Z,15.99
2023-05-16T15:50:34.312Z,16.04
2023-05-16T15:53:01.031Z,16.29
2023-05-16T15:55:27.831Z,16.38
2023-05-16T15:57:57.158Z,16.39
2023-05-16T16:00:24.046Z,15.56
2023-05-16T16:02:50.506Z,15.55
2023-05-16T16:05:16.892Z,15.50
2023-05-16T16:07:43.333Z,15.79
2023-05-16T16:10:09.882Z,16.44
2023-05-16T16:12:37.052Z,15.94
2023-05-16T16:15:06.433Z,16.00
2023-05-16T16:17:33.128Z,15.76
2023-05-16T16:19:59.530Z,15.98
2023-05-16T16:22:25.940Z,16.00
2023-05-16T16:24:52.768Z,16.39
2023-05-16T16:27:19.156Z,16.29
2023-05-16T16:29:45.520Z,16.14
2023-05-16T16:32:11.845Z,15.66
2023-05-16T16:34:38.169Z,15.75
2023-05-16T16:37:04.549Z,15.73
2023-05-16T16:39:33.048Z,15.65
2023-05-16T16:41:59.793Z,15.58
2023-05-16T16:44:26.181Z,15.22
2023-05-16T16:46:52.594Z,15.16
2023-05-16T16:49:19.116Z,15.37
2023-05-16T16:57:02.165Z,16.12
2023-05-16T16:59:28.521Z,16.25
2023-05-16T17:01:54.954Z,16.46
2023-05-16T17:04:21.350Z,16.33
2023-05-16T17:06:48.847Z,16.12
2023-05-16T17:09:17.783Z,15.50
2023-05-16T17:11:46.541Z,15.46
2023-05-16T17:14:14.247Z,15.26
2023-05-16T17:16:43.584Z,15.07
2023-05-16T17:19:09.940Z,15.03
2023-05-16T17:21:37.066Z,15.58
2023-05-16T17:24:03.604Z,15.45
2023-05-16T17:26:30.043Z,15.28
2023-05-16T17:28:56.590Z,15.24
2023-05-16T17:31:22.925Z,15.23
2023-05-16T17:33:49.322Z,15.07
2023-05-16T17:36:15.823Z,14.85
2023-05-16T17:38:42.156Z,15.47
2023-05-16T17:41:08.507Z,15.58
2023-05-16T17:43:34.854Z,15.80
2023-05-16T17:46:01.384Z,15.09
2023-05-16T17:48:27.822Z,15.16
2023-05-16T17:50:54.189Z,15.30
2023-05-16T17:53:20.910Z,15.00
2023-05-16T17:55:47.309Z,14.48
2023-05-16T17:58:13.660Z,14.89
2023-05-16T18:00:40.000Z,15.00
2023-05-16T18:03:06.826Z,15.29
2023-05-16T18:05:33.357Z,15.61
2023-05-16T18:07:59.702Z,15.46
2023-05-16T18:10:29.462Z,15.15
2023-05-16T18:13:00.297Z,14.97
2023-05-16T18:15:26.770Z,15.20
2023-05-16T18:17:53.271Z,15.28
2023-05-16T18:20:19.832Z,14.93
2023-05-16T18:22:46.233Z,14.90
2023-05-16T18:25:12.688Z,14.75
2023-05-16T18:27:39.359Z,15.11
2023-05-16T18:30:05.890Z,14.57
2023-05-16T18:32:32.431Z,14.62
2023-05-16T18:34:58.818Z,14.93
2023-05-16T18:37:25.264Z,15.11
2023-05-16T18:39:51.688Z,14.45
2023-05-16T18:42:18.554Z,14.38
2023-05-16T18:44:44.946Z,14.75
2023-05-16T18:47:11.597Z,14.91
2023-05-16T18:49:40.898Z,15.01
2023-05-16T18:52:08.230Z,15.00
2023-05-16T18:54:34.983Z,15.10
2023-05-16T18:57:02.061Z,15.25
2023-05-16T18:59:28.411Z,15.23
2023-05-16T19:01:54.726Z,15.33
2023-05-16T19:04:21.184Z,15.36
2023-05-16T19:06:48.688Z,15.33
2023-05-16T19:09:15.076Z,15.30
2023-05-16T19:11:41.429Z,15.14
2023-05-16T19:14:08.207Z,15.11
2023-05-16T19:16:34.576Z,15.09
2023-05-16T19:19:01.187Z,15.05
2023-05-16T19:21:27.640Z,14.99
2023-05-16T19:23:54.044Z,14.97
2023-05-16T19:26:20.497Z,14.92
2023-05-16T19:28:46.827Z,14.93
2023-05-16T19:31:13.217Z,14.80
2023-05-16T19:33:39.540Z,14.68
2023-05-16T19:36:06.022Z,14.48
2023-05-16T19:38:32.375Z,14.49
2023-05-16T19:40:59.793Z,14.44
2023-05-16T19:43:26.111Z,14.47
2023-05-16T19:45:52.492Z,14.45
2023-05-16T19:48:19.037Z,14.53
2023-05-16T19:50:46.024Z,14.61
2023-05-16T19:53:12.348Z,14.54
2023-05-16T19:55:38.974Z,14.46
2023-05-16T19:58:05.309Z,14.42
2023-05-16T20:00:31.676Z,14.45
2023-05-16T20:02:58.239Z,13.95
2023-05-16T20:05:24.668Z,14.03
2023-05-16T20:07:52.730Z,14.19
2023-05-16T20:10:21.200Z,14.36
2023-05-16T20:12:50.080Z,14.48
2023-05-16T20:15:16.506Z,14.51
2023-05-16T20:17:42.925Z,14.47
2023-05-16T20:20:09.436Z,14.46
2023-05-16T20:22:38.593Z,14.37
2023-05-16T20:25:05.931Z,14.21
2023-05-16T20:27:32.284Z,14.32
2023-05-16T20:29:58.593Z,14.28
2023-05-16T20:32:24.924Z,14.17
2023-05-16T20:34:51.295Z,14.19
2023-05-16T20:37:17.638Z,14.36
2023-05-16T20:39:43.968Z,14.35
2023-05-16T20:42:12.071Z,14.18
2023-05-16T20:44:38.758Z,14.08
2023-05-16T20:47:05.709Z,14.13
2023-05-16T20:49:32.108Z,14.17
2023-05-16T20:51:58.476Z,14.16
2023-05-16T20:54:24.942Z,14.11
2023-05-16T20:56:51.287Z,13.95
2023-05-16T20:59:17.678Z,13.94
2023-05-16T21:01:44.010Z,13.80
2023-05-16T21:04:10.365Z,13.66
2023-05-16T21:06:36.780Z,13.85
2023-05-16T21:09:04.681Z,13.91
2023-05-16T21:11:32.875Z,13.89
2023-05-16T21:13:59.495Z,13.81
2023-05-16T21:16:25.862Z,13.87
2023-05-16T21:18:52.382Z,13.97
2023-05-16T21:21:18.892Z,13.96
2023-05-16T21:23:45.236Z,13.77
2023-05-16T21:26:11.696Z,13.63
2023-05-16T21:28:46.074Z,13.72
2023-05-16T21:31:20.634Z,13.87
2023-05-16T21:33:47.129Z,13.87
2023-05-16T21:36:13.568Z,13.76
2023-05-16T21:38:39.893Z,13.74
2023-05-16T21:41:06.280Z,13.52
2023-05-16T21:43:32.596Z,13.36
2023-05-16T21:45:58.932Z,13.41
2023-05-16T21:48:25.318Z,13.56
2023-05-16T21:50:51.761Z,13.28
2023-05-16T21:53:19.022Z,13.42
2023-05-16T21:55:45.410Z,13.30
2023-05-16T21:58:11.729Z,13.19
2023-05-16T22:00:38.048Z,13.30
2023-05-16T22:03:04.509Z,13.03
2023-05-16T22:05:31.384Z,13.17
2023-05-16T22:07:57.723Z,13.27
2023-05-16T22:10:24.100Z,13.09
2023-05-16T22:12:50.527Z,12.83
2023-05-16T22:15:16.863Z,12.99
2023-05-16T22:17:43.229Z,12.95
2023-05-16T22:20:09.762Z,13.19
2023-05-16T22:22:36.228Z,13.33
2023-05-16T22:25:03.746Z,13.16
2023-05-16T22:27:30.073Z,12.85
2023-05-16T22:29:56.412Z,12.87
2023-05-16T22:32:22.753Z,12.98
2023-05-16T22:34:49.096Z,13.11
2023-05-16T22:37:15.443Z,13.10
2023-05-16T22:39:41.795Z,12.92
2023-05-16T22:42:08.120Z,13.01
2023-05-16T22:44:34.445Z,13.03
2023-05-16T22:47:00.772Z,13.05
2023-05-16T22:49:27.169Z,12.97
2023-05-16T22:51:53.518Z,12.88
2023-05-16T22:54:19.822Z,12.88
2023-05-16T22:56:46.244Z,12.79
2023-05-16T22:59:12.580Z,12.79
2023-05-16T23:01:38.917Z,12.87
2023-05-16T23:04:05.575Z,12.75
2023-05-16T23:06:32.551Z,12.91
2023-05-16T23:09:00.401Z,12.98
2023-05-16T23:11:26.757Z,13.08
2023-05-16T23:13:53.406Z,13.14
2023-05-16T23:16:19.811Z,12.96
2023-05-16T23:18:46.214Z,12.78
2023-05-16T23:21:12.658Z,12.87
2023-05-16T23:23:38.959Z,13.01
2023-05-16T23:26:05.403Z,12.82
2023-05-16T23:28:31.777Z,12.75
2023-05-16T23:30:58.180Z,12.64
2023-05-16T23:33:24.553Z,12.67
2023-05-16T23:35:51.150Z,12.40
2023-05-16T23:38:17.580Z,12.42
2023-05-16T23:40:43.910Z,12.37
2023-05-16T23:43:10.338Z,12.20
2023-05-16T23:45:37.369Z,12.19
2023-05-16T23:48:03.909Z,12.16
2023-05-16T23:50:30.344Z,12.37
2023-05-16T23:52:56.650Z,12.37
2023-05-16T23:55:23.067Z,12.36
2023-05-16T23:57:49.402Z,12.50
